Time;durP1;ratioP1;P1;durP2;ratioP2;P2;SDS_P1;SDS_P2;PMS_P1;PMS_P2;Temp;Humidity;BMP_temperature;BMP_pressure;BME280_temperature;BME280_humidity;BME280_pressure;Samples;Min_cycle;Max_cycle;Signal;HPM_P1;HPM_P2
2023/06/06 00:01:24;;;;;;;2.83;2.40;;;;;;;15.22;59.97;101167.91;5015564;28;20215;-82
2023/06/06 00:03:51;;;;;;;2.80;2.60;;;;;;;15.15;60.98;101163.97;5009312;28;20218;-83
2023/06/06 00:06:20;;;;;;;3.20;2.43;;;;;;;15.09;61.32;101159.88;4995830;28;20262;-80
2023/06/06 00:08:47;;;;;;;3.77;2.87;;;;;;;15.06;61.45;101162.78;5021026;28;20217;-82
2023/06/06 00:11:15;;;;;;;4.27;2.93;;;;;;;15.04;61.14;101155.84;5036024;28;20206;-81
2023/06/06 00:13:42;;;;;;;4.30;2.70;;;;;;;15.00;61.79;101162.41;5020223;28;20919;-82
2023/06/06 00:16:09;;;;;;;4.37;2.80;;;;;;;14.92;61.51;101165.63;4997251;28;20298;-82
2023/06/06 00:18:36;;;;;;;3.10;2.50;;;;;;;14.86;61.67;101160.75;4997810;28;20243;-82
2023/06/06 00:21:04;;;;;;;3.53;3.23;;;;;;;14.80;62.04;101164.72;4996307;28;20302;-81
2023/06/06 00:23:30;;;;;;;3.20;2.63;;;;;;;14.78;62.23;101160.44;4996099;28;20318;-83
2023/06/06 00:25:57;;;;;;;3.07;2.77;;;;;;;14.77;62.56;101156.91;4996075;28;20214;-82
2023/06/06 00:28:25;;;;;;;3.93;2.60;;;;;;;14.77;62.60;101166.75;4997877;28;20192;-83
2023/06/06 00:30:51;;;;;;;4.07;3.20;;;;;;;14.77;62.84;101166.75;5015326;28;20687;-83
2023/06/06 00:33:18;;;;;;;3.13;2.70;;;;;;;14.76;63.22;101167.72;5015537;28;20234;-82
2023/06/06 00:35:44;;;;;;;3.47;2.80;;;;;;;14.77;62.99;101164.09;5015651;28;20227;-83
2023/06/06 00:38:11;;;;;;;2.87;2.40;;;;;;;14.76;62.83;101173.09;5014402;28;20302;-80
2023/06/06 00:40:38;;;;;;;4.30;2.80;;;;;;;14.74;62.75;101175.88;5020114;28;20206;-82
2023/06/06 00:43:04;;;;;;;4.43;3.23;;;;;;;14.69;62.34;101169.16;5005275;28;20226;-83
2023/06/06 00:45:32;;;;;;;3.47;2.57;;;;;;;14.57;61.93;101171.75;5002507;28;20254;-81
2023/06/06 00:47:59;;;;;;;3.07;2.53;;;;;;;14.46;62.31;101168.97;4993857;28;20211;-82
2023/06/06 00:50:26;;;;;;;3.97;2.67;;;;;;;14.40;62.97;101165.84;5005534;28;20239;-82
2023/06/06 00:52:54;;;;;;;3.57;2.77;;;;;;;14.37;63.36;101176.78;4993700;28;20227;-82
2023/06/06 00:55:22;;;;;;;4.60;3.03;;;;;;;14.36;63.78;101175.91;4994893;28;20231;-84
2023/06/06 00:57:51;;;;;;;5.23;2.87;;;;;;;14.32;63.91;101169.06;4995455;28;20195;-83
2023/06/06 01:00:18;;;;;;;3.73;3.17;;;;;;;14.27;63.87;101170.34;5012514;28;20238;-82
2023/06/06 01:02:47;;;;;;;5.33;3.13;;;;;;;14.22;64.71;101176.88;5018832;28;20280;-81
2023/06/06 01:05:16;;;;;;;3.43;3.10;;;;;;;14.18;64.30;101170.03;5005489;28;21048;-84
2023/06/06 01:07:47;;;;;;;3.80;3.10;;;;;;;14.11;64.53;101182.16;4998999;28;20203;-82
2023/06/06 01:10:14;;;;;;;5.47;3.10;;;;;;;14.04;64.52;101183.53;5006094;28;20195;-82
2023/06/06 01:12:52;;;;;;;3.67;2.80;;;;;;;13.99;65.13;101174.94;4995996;28;20219;-82
2023/06/06 01:15:23;;;;;;;3.97;3.40;;;;;;;13.96;66.08;101169.81;5013328;28;20215;-82
2023/06/06 01:17:51;;;;;;;5.30;3.83;;;;;;;13.99;66.71;101171.41;5009271;28;20192;-82
2023/06/06 01:20:21;;;;;;;6.83;4.30;;;;;;;14.00;67.25;101173.97;4995260;28;20210;-82
2023/06/06 01:22:50;;;;;;;3.80;3.50;;;;;;;14.03;67.36;101170.25;5016156;28;20232;-82
2023/06/06 01:25:19;;;;;;;3.73;3.43;;;;;;;14.01;67.35;101167.66;4999386;28;20203;-83
2023/06/06 01:27:45;;;;;;;3.53;3.23;;;;;;;13.97;66.86;101168.88;5007634;28;20199;-83
2023/06/06 01:30:13;;;;;;;6.73;3.27;;;;;;;13.94;67.12;101169.06;5021036;28;20207;-80
2023/06/06 01:32:47;;;;;;;5.20;3.50;;;;;;;13.89;66.84;101166.72;5006158;28;20234;-82
2023/06/06 01:35:23;;;;;;;3.60;3.30;;;;;;;13.83;66.77;101163.59;5014438;28;20210;-81
2023/06/06 01:37:56;;;;;;;3.20;2.90;;;;;;;13.77;67.15;101170.25;5006635;28;20206;-82
2023/06/06 01:40:26;;;;;;;5.10;3.40;;;;;;;13.72;67.52;101158.97;5016421;28;20553;-82
2023/06/06 01:42:54;;;;;;;4.50;3.33;;;;;;;13.70;67.61;101168.94;5025120;28;20234;-81
2023/06/06 01:45:27;;;;;;;4.90;3.77;;;;;;;13.69;68.29;101169.88;5013606;28;20578;-83
2023/06/06 01:47:54;;;;;;;5.33;3.80;;;;;;;13.68;68.83;101162.81;5006484;28;20206;-82
2023/06/06 01:50:22;;;;;;;4.07;3.30;;;;;;;13.69;68.73;101163.66;4995440;28;20203;-80
2023/06/06 01:52:48;;;;;;;3.53;3.17;;;;;;;13.67;68.48;101160.25;4992855;28;20238;-81
2023/06/06 01:55:16;;;;;;;4.33;3.17;;;;;;;13.62;67.51;101168.56;4993129;28;20235;-82
2023/06/06 01:57:42;;;;;;;4.67;3.33;;;;;;;13.53;67.84;101170.06;5006323;28;20202;-82
2023/06/06 02:00:11;;;;;;;5.60;3.70;;;;;;;13.48;67.73;101168.66;5013175;28;20206;-82
2023/06/06 02:02:37;;;;;;;5.70;4.07;;;;;;;13.41;67.80;101170.91;4994764;28;20232;-80
2023/06/06 02:05:04;;;;;;;5.30;3.47;;;;;;;13.35;67.90;101168.63;5012133;28;20678;-83
2023/06/06 02:07:34;;;;;;;4.83;3.53;;;;;;;13.30;68.47;101164.53;5026857;28;20203;-81
2023/06/06 02:10:01;;;;;;;4.27;3.70;;;;;;;13.27;69.02;101164.72;5013011;28;20569;-81
2023/06/06 02:12:28;;;;;;;5.40;4.27;;;;;;;13.23;68.89;101177.47;5011815;28;20230;-82
2023/06/06 02:14:55;;;;;;;3.80;3.37;;;;;;;13.17;69.31;101175.19;5011308;28;20254;-82
2023/06/06 02:17:22;;;;;;;5.10;3.73;;;;;;;13.09;69.23;101178.31;5011994;28;20207;-82
2023/06/06 02:19:48;;;;;;;4.73;4.17;;;;;;;13.03;69.67;101175.22;5012660;28;20229;-80
2023/06/06 02:22:15;;;;;;;5.40;3.97;;;;;;;12.97;70.22;101175.59;5011760;28;20225;-81
2023/06/06 02:24:42;;;;;;;6.07;3.97;;;;;;;12.92;70.82;101175.88;5003378;28;20226;-82
2023/06/06 02:27:09;;;;;;;6.43;4.33;;;;;;;12.89;71.50;101178.78;5007687;28;20207;-81
2023/06/06 02:29:37;;;;;;;6.73;4.73;;;;;;;12.88;72.38;101169.06;5002010;28;20767;-81
2023/06/06 02:32:04;;;;;;;4.63;4.23;;;;;;;12.88;72.41;101166.38;5012148;28;20199;-82
2023/06/06 02:34:31;;;;;;;6.03;3.90;;;;;;;12.88;72.56;101171.72;5005014;28;20199;-81
2023/06/06 02:36:59;;;;;;;5.67;4.03;;;;;;;12.83;72.35;101174.69;4999893;28;20210;-81
2023/06/06 02:39:26;;;;;;;6.27;4.63;;;;;;;12.75;72.48;101176.97;5010670;28;20241;-80
2023/06/06 02:41:53;;;;;;;6.07;4.43;;;;;;;12.67;72.81;101173.94;5008347;28;20203;-81
2023/06/06 02:44:20;;;;;;;5.10;3.57;;;;;;;12.63;72.90;101179.59;5013670;28;20210;-81
2023/06/06 02:46:48;;;;;;;4.87;3.73;;;;;;;12.60;73.59;101171.75;5005533;28;20257;-81
2023/06/06 02:49:14;;;;;;;4.90;4.10;;;;;;;12.58;73.99;101171.84;5011335;28;20772;-80
2023/06/06 02:51:41;;;;;;;6.60;3.87;;;;;;;12.59;74.24;101173.56;5014780;28;20214;-81
2023/06/06 02:54:08;;;;;;;6.47;4.40;;;;;;;12.58;74.10;101176.34;5018509;28;20233;-81
2023/06/06 02:56:34;;;;;;;4.20;3.80;;;;;;;12.54;74.08;101173.00;5017391;28;20230;-83
2023/06/06 02:59:01;;;;;;;6.40;3.90;;;;;;;12.50;74.57;101172.34;5012364;28;20209;-81
2023/06/06 03:01:30;;;;;;;4.80;4.27;;;;;;;12.48;74.50;101171.59;5010670;28;20214;-81
2023/06/06 03:03:58;;;;;;;4.60;3.90;;;;;;;12.48;74.76;101173.41;5013995;28;20314;-81
2023/06/06 03:06:24;;;;;;;6.87;4.10;;;;;;;12.47;75.15;101182.38;5023758;28;20214;-81
2023/06/06 03:08:55;;;;;;;4.53;3.90;;;;;;;12.42;74.27;101179.13;5008736;28;20265;-81
2023/06/06 03:11:21;;;;;;;7.37;4.30;;;;;;;12.39;74.14;101168.63;5002989;28;20210;-81
2023/06/06 03:13:48;;;;;;;6.90;4.17;;;;;;;12.36;74.68;101168.84;5001598;28;20235;-82
2023/06/06 03:16:15;;;;;;;7.47;4.67;;;;;;;12.35;75.64;101172.47;5011591;28;20218;-81
2023/06/06 03:18:41;;;;;;;4.87;4.47;;;;;;;12.38;76.09;101177.59;5021101;28;20213;-81
2023/06/06 03:21:09;;;;;;;5.10;4.10;;;;;;;12.35;75.47;101169.78;5017023;28;20709;-81
2023/06/06 03:23:36;;;;;;;4.50;3.30;;;;;;;12.29;74.81;101176.34;5022793;28;20261;-81
2023/06/06 03:26:03;;;;;;;8.33;4.57;;;;;;;12.26;75.81;101175.69;5012128;28;20226;-81
2023/06/06 03:28:31;;;;;;;4.73;4.17;;;;;;;12.28;77.25;101174.66;5015447;28;20211;-81
2023/06/06 03:30:58;;;;;;;5.70;4.63;;;;;;;12.33;78.27;101169.03;5005785;28;20277;-80
2023/06/06 03:33:24;;;;;;;6.63;4.30;;;;;;;12.39;78.71;101180.16;5003216;28;20230;-80
2023/06/06 03:35:51;;;;;;;5.57;3.73;;;;;;;12.41;78.26;101183.59;5013215;28;20223;-81
2023/06/06 03:38:19;;;;;;;5.13;4.10;;;;;;;12.37;76.91;101178.53;5025972;28;20840;-81
2023/06/06 03:40:45;;;;;;;4.80;4.00;;;;;;;12.32;76.61;101188.66;5024545;28;20221;-80
2023/06/06 03:43:12;;;;;;;6.77;4.13;;;;;;;12.29;77.43;101186.19;5017017;28;20225;-82
2023/06/06 03:45:38;;;;;;;6.07;4.17;;;;;;;12.27;76.87;101185.41;5012371;28;20211;-82
2023/06/06 03:48:05;;;;;;;5.50;4.07;;;;;;;12.21;76.59;101180.44;5013014;28;20206;-80
2023/06/06 03:50:31;;;;;;;4.17;3.77;;;;;;;12.14;76.75;101174.66;5022059;28;20224;-81
2023/06/06 03:52:58;;;;;;;6.60;4.50;;;;;;;12.11;76.93;101180.16;5008279;28;20239;-81
2023/06/06 03:55:26;;;;;;;5.17;4.07;;;;;;;12.08;77.23;101183.00;5014164;28;20280;-82
2023/06/06 03:57:53;;;;;;;5.40;4.40;;;;;;;12.06;77.38;101182.25;5007686;28;20213;-82
2023/06/06 04:00:20;;;;;;;7.60;4.20;;;;;;;12.03;77.97;101183.28;5003762;28;20214;-82
2023/06/06 04:02:48;;;;;;;6.43;4.30;;;;;;;12.06;79.08;101187.59;5007166;28;20236;-81
2023/06/06 04:05:15;;;;;;;8.67;4.37;;;;;;;12.06;78.81;101188.44;5012672;28;20300;-81
2023/06/06 04:07:42;;;;;;;5.67;4.03;;;;;;;12.05;78.94;101186.72;5003099;28;20224;-81
2023/06/06 04:10:09;;;;;;;5.77;5.07;;;;;;;12.06;79.21;101190.25;5006397;28;20214;-81
2023/06/06 04:12:38;;;;;;;5.63;4.87;;;;;;;12.11;80.87;101185.50;5012841;28;20237;-81
2023/06/06 04:15:05;;;;;;;7.20;5.57;;;;;;;12.19;81.80;101180.53;5013377;28;20233;-80
2023/06/06 04:17:32;;;;;;;6.63;5.63;;;;;;;12.27;82.31;101194.28;5009976;28;20214;-82
2023/06/06 04:19:58;;;;;;;7.93;5.17;;;;;;;12.36;82.88;101184.88;5017145;28;20213;-81
2023/06/06 04:22:25;;;;;;;7.57;5.73;;;;;;;12.42;83.22;101179.13;5007246;28;20236;-81
2023/06/06 04:24:52;;;;;;;7.10;5.33;;;;;;;12.49;83.63;101186.66;5009353;28;20203;-83
2023/06/06 04:27:18;;;;;;;7.23;5.87;;;;;;;12.55;83.92;101196.09;5002591;28;20206;-82
2023/06/06 04:29:50;;;;;;;7.83;5.70;;;;;;;12.60;84.09;101199.34;5018754;28;20220;-82
2023/06/06 04:32:19;;;;;;;6.87;5.40;;;;;;;12.65;84.41;101204.41;5004752;28;20302;-81
2023/06/06 04:34:46;;;;;;;7.43;5.23;;;;;;;12.68;84.15;101194.38;5009075;28;20204;-81
2023/06/06 04:37:13;;;;;;;9.13;5.73;;;;;;;12.72;84.54;101189.72;5014985;28;20226;-81
2023/06/06 04:39:41;;;;;;;8.47;6.17;;;;;;;12.76;84.65;101193.88;5015018;28;20211;-82
2023/06/06 04:42:08;;;;;;;7.33;5.80;;;;;;;12.78;84.70;101192.81;5005567;28;20312;-81
2023/06/06 04:44:41;;;;;;;8.87;5.90;;;;;;;12.82;84.71;101201.50;5011602;28;20659;-83
2023/06/06 04:47:10;;;;;;;8.50;6.07;;;;;;;12.88;85.10;101205.63;5006083;28;20209;-83
2023/06/06 04:49:39;;;;;;;7.93;6.07;;;;;;;12.92;85.09;101202.63;5007074;28;20221;-82
2023/06/06 04:52:08;;;;;;;8.03;6.17;;;;;;;12.95;85.21;101204.25;5007679;28;20209;-83
2023/06/06 04:54:37;;;;;;;8.97;5.87;;;;;;;12.98;84.92;101204.91;5016230;28;20202;-82
2023/06/06 04:57:05;;;;;;;10.40;5.20;;;;;;;13.01;84.91;101210.06;5018542;28;20257;-83
2023/06/06 04:59:32;;;;;;;7.07;6.37;;;;;;;13.05;84.92;101200.03;5010196;28;20213;-81
2023/06/06 05:01:59;;;;;;;7.53;5.50;;;;;;;13.10;85.20;101196.09;5019932;28;20206;-81
2023/06/06 05:04:29;;;;;;;7.97;5.60;;;;;;;13.16;85.10;101192.19;5009373;28;20217;-81
2023/06/06 05:06:56;;;;;;;6.43;5.77;;;;;;;13.20;85.28;101193.72;5008373;28;20203;-82
2023/06/06 05:09:22;;;;;;;7.17;5.57;;;;;;;13.28;85.38;101191.38;5004480;28;20213;-82
2023/06/06 05:11:52;;;;;;;7.13;6.37;;;;;;;13.36;85.58;101193.56;5009176;28;20222;-82
2023/06/06 05:14:23;;;;;;;8.47;6.37;;;;;;;13.43;85.13;101185.03;5013025;28;20199;-81
2023/06/06 05:16:51;;;;;;;7.87;6.00;;;;;;;13.52;85.06;101183.56;5016640;28;20219;-80
2023/06/06 05:19:17;;;;;;;10.17;5.90;;;;;;;13.60;85.27;101191.94;5006301;28;20263;-81
2023/06/06 05:21:45;;;;;;;6.87;5.73;;;;;;;13.72;84.91;101200.94;5000268;28;20214;-82
2023/06/06 05:24:12;;;;;;;11.03;5.67;;;;;;;13.85;84.67;101210.72;5000698;28;20227;-81
2023/06/06 05:26:38;;;;;;;8.97;6.30;;;;;;;13.95;84.86;101199.38;5015324;28;20571;-83
2023/06/06 05:29:05;;;;;;;8.03;4.93;;;;;;;14.05;84.36;101195.97;5007837;28;20230;-82
2023/06/06 05:31:33;;;;;;;6.53;5.37;;;;;;;14.15;83.33;101198.88;5015903;28;20202;-82
2023/06/06 05:34:00;;;;;;;6.43;5.37;;;;;;;14.24;83.13;101199.06;5014844;28;20229;-81
2023/06/06 05:36:27;;;;;;;11.43;5.07;;;;;;;14.36;82.43;101201.84;5015814;28;20696;-82
2023/06/06 05:38:55;;;;;;;7.67;5.60;;;;;;;14.44;80.86;101200.38;5002581;28;20294;-82
2023/06/06 05:41:22;;;;;;;8.10;5.83;;;;;;;14.56;80.77;101206.69;5005428;28;20299;-82
2023/06/06 05:43:50;;;;;;;7.47;5.10;;;;;;;14.71;80.69;101202.91;5012419;28;20280;-82
2023/06/06 05:46:16;;;;;;;6.80;5.33;;;;;;;14.85;79.85;101204.63;5005762;28;20203;-82
2023/06/06 05:48:43;;;;;;;5.37;4.17;;;;;;;15.01;79.20;101201.69;5008907;28;20210;-82
2023/06/06 05:51:10;;;;;;;6.03;5.17;;;;;;;15.16;78.20;101201.41;5009245;28;20215;-81
2023/06/06 05:53:40;;;;;;;6.17;4.03;;;;;;;15.34;77.33;101201.00;5010661;28;20243;-83
2023/06/06 05:56:08;;;;;;;7.57;4.27;;;;;;;15.51;76.36;101203.28;5009255;28;20216;-82
2023/06/06 05:58:35;;;;;;;8.93;4.60;;;;;;;15.67;75.03;101201.19;5001186;28;21028;-82
2023/06/06 06:01:01;;;;;;;4.43;3.77;;;;;;;15.82;73.67;101201.84;5002496;28;20845;-83
2023/06/06 06:03:28;;;;;;;7.13;4.13;;;;;;;15.99;72.90;101201.41;5007749;28;20717;-81
2023/06/06 06:06:04;;;;;;;7.67;4.00;;;;;;;16.16;72.02;101195.56;5011904;28;20558;-82
2023/06/06 06:08:31;;;;;;;5.73;3.90;;;;;;;16.34;70.66;101193.28;5002224;28;20304;-82
2023/06/06 06:10:58;;;;;;;5.07;3.97;;;;;;;16.50;69.09;101195.59;4997377;28;20228;-82
2023/06/06 06:13:25;;;;;;;7.20;3.47;;;;;;;16.64;68.55;101193.59;5010206;28;20750;-80
2023/06/06 06:15:52;;;;;;;6.87;3.23;;;;;;;16.77;66.46;101190.75;5013919;28;20601;-83
2023/06/06 06:18:19;;;;;;;6.70;3.70;;;;;;;16.92;65.92;101194.03;5003933;28;20218;-81
2023/06/06 06:20:46;;;;;;;7.27;3.60;;;;;;;17.07;64.58;101203.53;5006882;28;20966;-82
2023/06/06 06:23:13;;;;;;;5.30;3.30;;;;;;;17.19;64.05;101205.25;5008176;28;20227;-81
2023/06/06 06:25:39;;;;;;;4.60;3.40;;;;;;;17.34;63.23;101201.28;5008371;28;20218;-82
2023/06/06 06:28:06;;;;;;;4.37;3.23;;;;;;;17.49;62.98;101209.91;5014210;28;20209;-83
2023/06/06 06:30:34;;;;;;;6.70;3.63;;;;;;;17.66;62.58;101216.63;5006638;28;20236;-82
2023/06/06 06:33:00;;;;;;;5.47;3.50;;;;;;;17.79;61.88;101206.50;5010678;28;20699;-82
2023/06/06 06:35:27;;;;;;;4.57;3.40;;;;;;;17.91;60.76;101200.09;5004944;28;20220;-83
2023/06/06 06:37:53;;;;;;;5.40;3.90;;;;;;;18.08;60.59;101205.88;5015126;28;21226;-80
2023/06/06 06:40:20;;;;;;;3.80;3.00;;;;;;;18.19;59.85;101213.88;5010991;28;20674;-81
2023/06/06 06:42:46;;;;;;;4.57;3.47;;;;;;;18.28;58.96;101199.59;5006741;28;20270;-83
2023/06/06 06:45:19;;;;;;;4.97;3.43;;;;;;;18.36;58.63;101200.66;5007176;28;20252;-82
2023/06/06 06:47:47;;;;;;;3.70;3.37;;;;;;;18.47;58.15;101202.41;5013027;28;20303;-82
2023/06/06 06:50:13;;;;;;;4.03;3.60;;;;;;;18.55;57.77;101194.50;5002961;28;20213;-82
2023/06/06 06:52:40;;;;;;;5.47;3.47;;;;;;;18.63;57.53;101193.88;5016562;28;20237;-83
2023/06/06 06:55:09;;;;;;;5.53;3.40;;;;;;;18.73;57.65;101203.69;5004229;28;20295;-82
2023/06/06 06:57:36;;;;;;;6.87;3.20;;;;;;;18.87;57.30;101215.09;5006639;28;20229;-83
2023/06/06 07:00:11;;;;;;;5.13;3.00;;;;;;;19.04;57.17;101225.25;4993090;28;20199;-83
2023/06/06 07:02:39;;;;;;;5.77;3.87;;;;;;;19.19;56.58;101212.19;5007373;28;20308;-83
2023/06/06 07:05:08;;;;;;;5.63;3.90;;;;;;;19.32;56.27;101215.50;5004878;28;20217;-83
2023/06/06 07:07:34;;;;;;;4.97;3.53;;;;;;;19.41;55.63;101211.97;5009130;28;20216;-84
2023/06/06 07:10:01;;;;;;;3.83;3.27;;;;;;;19.43;54.97;101213.53;5014218;28;20274;-83
2023/06/06 07:12:27;;;;;;;5.10;3.00;;;;;;;19.43;54.82;101207.28;5010499;28;20234;-81
2023/06/06 07:14:54;;;;;;;5.03;3.23;;;;;;;19.42;54.61;101214.53;5004307;28;20228;-83
2023/06/06 07:17:21;;;;;;;4.03;3.23;;;;;;;19.41;54.60;101223.63;5007433;28;20242;-81
2023/06/06 07:19:47;;;;;;;4.37;3.00;;;;;;;19.38;54.70;101232.00;4997006;28;20217;-82
2023/06/06 07:22:15;;;;;;;4.90;3.30;;;;;;;19.35;54.84;101234.97;5009048;28;20224;-82
2023/06/06 07:24:41;;;;;;;5.53;3.37;;;;;;;19.34;54.97;101230.59;5003983;28;20207;-81
2023/06/06 07:27:08;;;;;;;6.13;3.53;;;;;;;19.33;54.92;101226.19;5006733;28;20203;-82
2023/06/06 07:29:36;;;;;;;3.73;3.30;;;;;;;19.34;54.69;101227.88;5005444;28;20306;-82
2023/06/06 07:32:03;;;;;;;4.13;2.73;;;;;;;19.37;54.84;101229.44;5001928;28;20218;-81
2023/06/06 07:34:30;;;;;;;4.27;3.40;;;;;;;19.40;54.98;101224.59;5004338;28;20208;-81
2023/06/06 07:36:58;;;;;;;5.50;3.17;;;;;;;19.42;54.66;101219.06;5004773;28;20230;-82
2023/06/06 07:39:25;;;;;;;4.63;3.23;;;;;;;19.47;54.93;101221.34;5015924;28;20208;-81
2023/06/06 07:41:52;;;;;;;6.53;3.97;;;;;;;19.48;53.91;101220.38;5000015;28;20212;-82
2023/06/06 07:44:18;;;;;;;4.00;3.47;;;;;;;19.50;54.38;101219.28;4999135;28;21654;-82
2023/06/06 07:46:45;;;;;;;4.43;3.37;;;;;;;19.56;54.47;101223.22;5013504;28;20592;-82
2023/06/06 07:49:12;;;;;;;4.60;3.40;;;;;;;19.61;54.48;101224.53;5005925;28;20242;-83
2023/06/06 07:51:39;;;;;;;5.10;4.10;;;;;;;19.65;54.13;101225.09;5004212;28;20213;-82
2023/06/06 07:54:05;;;;;;;6.23;3.60;;;;;;;19.70;53.99;101221.00;5011599;28;20235;-82
2023/06/06 07:56:37;;;;;;;4.87;3.20;;;;;;;19.78;54.02;101225.66;5018306;28;20229;-82
2023/06/06 07:59:04;;;;;;;3.97;3.57;;;;;;;19.83;53.43;101231.50;5005475;28;20258;-81
2023/06/06 08:01:31;;;;;;;4.23;3.83;;;;;;;19.82;52.83;101228.94;4997386;28;20219;-82
2023/06/06 08:03:59;;;;;;;5.43;3.47;;;;;;;19.83;53.60;101223.41;5019994;28;20881;-83
2023/06/06 08:06:27;;;;;;;3.90;3.50;;;;;;;19.89;53.62;101224.66;5005421;28;20230;-81
2023/06/06 08:08:54;;;;;;;4.40;3.60;;;;;;;19.94;53.63;101233.19;5013473;28;20237;-81
2023/06/06 08:11:21;;;;;;;4.60;3.23;;;;;;;19.98;52.99;101227.38;5003217;28;20229;-81
2023/06/06 08:13:48;;;;;;;5.47;3.47;;;;;;;20.03;53.02;101232.34;5012071;28;20600;-83
2023/06/06 08:16:15;;;;;;;4.90;3.43;;;;;;;20.08;52.78;101230.91;5002550;28;20202;-82
2023/06/06 08:18:41;;;;;;;4.87;3.10;;;;;;;20.13;52.37;101230.47;5009674;28;20222;-82
2023/06/06 08:21:08;;;;;;;3.80;3.37;;;;;;;20.18;52.50;101227.34;5009181;28;20211;-81
2023/06/06 08:23:34;;;;;;;6.80;3.93;;;;;;;20.24;52.34;101230.31;5019361;28;20725;-82
2023/06/06 08:26:01;;;;;;;4.03;3.33;;;;;;;20.32;52.10;101224.16;5009253;28;20202;-82
2023/06/06 08:28:28;;;;;;;3.90;3.50;;;;;;;20.36;51.89;101221.06;5016341;28;20209;-82
2023/06/06 08:30:56;;;;;;;6.53;3.67;;;;;;;20.44;52.06;101229.28;5008958;28;20220;-82
2023/06/06 08:33:23;;;;;;;4.67;3.30;;;;;;;20.48;51.87;101221.72;5007023;28;20224;-84
2023/06/06 08:35:49;;;;;;;4.27;3.03;;;;;;;20.56;51.28;101229.13;5016820;28;20204;-83
2023/06/06 08:38:16;;;;;;;5.50;3.80;;;;;;;20.58;51.24;101235.25;5012304;28;20880;-83
2023/06/06 08:40:43;;;;;;;3.40;3.10;;;;;;;20.63;51.75;101225.66;5016350;28;20671;-83
2023/06/06 08:43:12;;;;;;;5.55;3.17;;;;;;;20.75;51.50;101224.50;5014038;28;20230;-84
2023/06/06 08:45:42;;;;;;;5.93;3.30;;;;;;;20.88;51.03;101223.28;5010649;28;20207;-83
2023/06/06 08:48:14;;;;;;;6.80;4.25;;;;;;;20.96;50.90;101226.13;5010959;28;20201;-83
2023/06/06 08:50:42;;;;;;;4.30;3.13;;;;;;;20.96;50.35;101226.13;5022531;28;20210;-82
2023/06/06 08:53:10;;;;;;;7.27;3.83;;;;;;;20.93;50.61;101224.56;5017892;28;20304;-83
2023/06/06 08:55:37;;;;;;;4.50;3.83;;;;;;;20.96;50.98;101226.13;5004897;28;20259;-82
2023/06/06 08:58:06;;;;;;;5.30;3.97;;;;;;;20.96;51.15;101226.13;5004445;28;20233;-83
2023/06/06 09:00:33;;;;;;;4.38;3.72;;;;;;;20.98;51.67;101235.78;5011861;28;20309;-83
2023/06/06 09:03:02;;;;;;;4.35;3.70;;;;;;;20.99;51.73;101234.78;5003057;28;20631;-84
2023/06/06 09:05:31;;;;;;;4.30;3.35;;;;;;;21.05;51.58;101230.63;5008043;28;20206;-82
2023/06/06 09:07:58;;;;;;;6.35;3.65;;;;;;;21.10;51.47;101221.03;4996314;28;20207;-82
2023/06/06 09:10:25;;;;;;;6.97;3.80;;;;;;;21.18;51.47;101225.69;5006068;28;20236;-82
2023/06/06 09:12:51;;;;;;;5.35;3.92;;;;;;;21.22;51.25;101227.13;5003802;28;20259;-83
2023/06/06 09:15:18;;;;;;;5.85;3.83;;;;;;;21.30;51.47;101223.66;4999962;28;20210;-82
2023/06/06 09:17:46;;;;;;;6.28;3.80;;;;;;;21.38;51.35;101223.75;5004125;28;20315;-83
2023/06/06 09:20:15;;;;;;;4.68;3.72;;;;;;;21.45;51.35;101225.69;5009838;28;20200;-82
2023/06/06 09:22:44;;;;;;;6.68;3.58;;;;;;;21.53;51.37;101230.34;5005867;28;20287;-82
2023/06/06 09:25:18;;;;;;;4.60;3.65;;;;;;;21.60;51.15;101227.88;5015687;28;20206;-83
2023/06/06 09:27:45;;;;;;;4.15;3.40;;;;;;;21.59;50.78;101218.88;5014730;28;20234;-82
2023/06/06 09:30:22;;;;;;;3.83;3.40;;;;;;;21.64;50.99;101224.72;5013520;28;20215;-82
2023/06/06 09:32:52;;;;;;;5.15;3.80;;;;;;;21.71;50.88;101224.91;5005720;28;20711;-82
2023/06/06 09:35:20;;;;;;;5.50;3.58;;;;;;;21.77;50.87;101229.72;5012642;28;20293;-82
2023/06/06 09:37:48;;;;;;;5.75;3.90;;;;;;;21.90;50.77;101232.88;5005346;28;20226;-83
2023/06/06 09:40:15;;;;;;;7.63;4.50;;;;;;;21.97;50.06;101225.00;5009122;28;20253;-83
2023/06/06 09:42:46;;;;;;;5.20;3.78;;;;;;;22.04;49.83;101226.06;5004031;28;20234;-82
2023/06/06 09:45:14;;;;;;;9.80;4.53;;;;;;;22.09;49.90;101223.75;5010301;28;20200;-83
2023/06/06 09:47:42;;;;;;;5.93;3.83;;;;;;;22.12;49.82;101226.16;5003206;28;20673;-82
2023/06/06 09:50:10;;;;;;;4.80;3.50;;;;;;;22.14;49.73;101227.72;5014210;28;20242;-82
2023/06/06 09:52:36;;;;;;;4.30;3.60;;;;;;;22.21;49.58;101235.22;5012885;28;20753;-83
2023/06/06 09:55:08;;;;;;;3.72;3.40;;;;;;;22.23;49.51;101231.31;5010266;28;20203;-83
2023/06/06 09:57:36;;;;;;;5.75;3.88;;;;;;;22.29;49.42;101224.41;4998035;28;20691;-82
2023/06/06 10:00:10;;;;;;;7.70;4.15;;;;;;;22.34;49.33;101225.66;4999610;28;20653;-83
2023/06/06 10:02:41;;;;;;;3.75;3.30;;;;;;;22.36;48.80;101230.91;5002469;28;20230;-82
2023/06/06 10:05:09;;;;;;;5.53;3.90;;;;;;;22.35;49.11;101227.34;5014822;28;20199;-83
2023/06/06 10:07:36;;;;;;;5.78;3.72;;;;;;;22.40;49.01;101224.13;5005797;28;20202;-82
2023/06/06 10:10:03;;;;;;;6.03;3.78;;;;;;;22.45;48.90;101232.66;4999759;28;20212;-82
2023/06/06 10:12:31;;;;;;;4.50;4.00;;;;;;;22.45;48.78;101230.78;4999754;28;20230;-83
2023/06/06 10:14:58;;;;;;;4.78;3.90;;;;;;;22.45;48.72;101229.94;5003735;28;20314;-83
2023/06/06 10:17:26;;;;;;;4.68;3.30;;;;;;;22.45;48.73;101228.09;5003042;28;20226;-83
2023/06/06 10:19:53;;;;;;;4.60;3.33;;;;;;;22.50;49.14;101227.59;5000028;28;20211;-83
2023/06/06 10:22:19;;;;;;;5.10;3.55;;;;;;;22.56;48.93;101231.56;5017529;28;20585;-83
2023/06/06 10:24:46;;;;;;;5.90;3.42;;;;;;;22.59;48.64;101225.78;5001193;28;20318;-83
2023/06/06 10:27:19;;;;;;;5.13;3.58;;;;;;;22.59;48.61;101231.22;5010085;28;20210;-83
2023/06/06 10:29:53;;;;;;;4.32;3.88;;;;;;;22.56;48.71;101226.97;5015893;28;20221;-81
2023/06/06 10:32:25;;;;;;;4.90;4.15;;;;;;;22.58;48.97;101227.63;5004125;28;20230;-81
2023/06/06 10:34:53;;;;;;;5.53;3.72;;;;;;;22.64;49.02;101212.56;5010198;28;20295;-83
2023/06/06 10:37:21;;;;;;;5.18;3.38;;;;;;;22.72;48.94;101224.34;5006892;28;20726;-83
2023/06/06 10:39:59;;;;;;;5.28;3.83;;;;;;;22.82;48.84;101216.09;5001116;28;20211;-84
2023/06/06 10:42:36;;;;;;;5.57;3.72;;;;;;;22.91;48.50;101220.56;5004911;28;20721;-83
2023/06/06 10:45:06;;;;;;;5.68;3.55;;;;;;;22.92;48.31;101216.84;5006776;28;20314;-82
2023/06/06 10:47:34;;;;;;;5.22;3.53;;;;;;;22.89;48.33;101219.03;5010399;28;20194;-84
2023/06/06 10:50:23;;;;;;;3.85;3.45;;;;;;;22.88;48.28;101212.75;5010987;28;20238;-82
2023/06/06 10:52:52;;;;;;;4.30;3.90;;;;;;;22.89;48.11;101219.03;5001840;28;20707;-83
2023/06/06 10:55:39;;;;;;;7.05;3.63;;;;;;;22.91;47.82;101217.84;5013150;28;20200;-82
2023/06/06 10:58:09;;;;;;;5.40;3.72;;;;;;;22.98;48.09;101215.31;5007972;28;20233;-83
2023/06/06 11:00:42;;;;;;;5.57;4.00;;;;;;;23.07;48.21;101225.22;5002271;28;20220;-83
2023/06/06 11:03:09;;;;;;;5.18;4.05;;;;;;;23.14;47.92;101216.22;5017332;28;20232;-83
2023/06/06 11:06:11;;;;;;;5.60;4.13;;;;;;;23.20;47.39;101217.44;5010931;28;20211;-82
2023/06/06 11:08:40;;;;;;;7.47;3.95;;;;;;;23.29;47.48;101205.56;5001032;28;20197;-83
2023/06/06 11:11:18;;;;;;;4.72;4.22;;;;;;;23.38;47.42;101211.88;5017490;28;20207;-83
2023/06/06 11:13:51;;;;;;;4.25;3.67;;;;;;;23.38;46.62;101211.88;4991670;28;20264;-84
2023/06/06 11:16:27;;;;;;;5.95;3.58;;;;;;;23.39;46.97;101208.16;4996970;28;20194;-82
2023/06/06 11:19:01;;;;;;;5.35;4.07;;;;;;;23.41;47.12;101204.25;5008482;28;20215;-83
2023/06/06 11:21:28;;;;;;;5.57;3.92;;;;;;;23.39;47.05;101198.13;5015891;28;20203;-83
2023/06/06 11:23:55;;;;;;;4.97;3.67;;;;;;;23.35;46.77;101204.91;5015441;28;20229;-82
2023/06/06 11:26:22;;;;;;;5.03;4.05;;;;;;;23.33;47.09;101208.78;5006314;28;20215;-85
2023/06/06 11:28:49;;;;;;;6.60;3.95;;;;;;;23.31;47.17;101203.53;5007015;28;20198;-83